sensor_id;sensor_type;location;lat;lon;timestamp;temperature;humidity
39277;DHT22;63149;48.086;-1.606;2022-12-05T06:01:21;5.10;99.90
39277;DHT22;63149;48.086;-1.606;2022-12-05T06:03:48;5.10;99.90
39277;DHT22;63149;48.086;-1.606;2022-12-05T06:06:15;5.10;99.90
39277;DHT22;63149;48.086;-1.606;2022-12-05T06:08:42;5.10;99.90
39277;DHT22;63149;48.086;-1.606;2022-12-05T06:11:10;5.10;99.90
39277;DHT22;63149;48.086;-1.606;2022-12-05T06:13:38;5.10;99.90
39277;DHT22;63149;48.086;-1.606;2022-12-05T06:16:05;5.10;99.90
39277;DHT22;63149;48.086;-1.606;2022-12-05T06:18:33;5.10;99.90
39277;DHT22;63149;48.086;-1.606;2022-12-05T06:21:00;5.10;99.90
39277;DHT22;63149;48.086;-1.606;2022-12-05T06:23:28;5.00;99.90
39277;DHT22;63149;48.086;-1.606;2022-12-05T06:25:55;5.00;99.90
39277;DHT22;63149;48.086;-1.606;2022-12-05T06:28:22;5.00;99.90
39277;DHT22;63149;48.086;-1.606;2022-12-05T06:30:49;5.10;99.90
39277;DHT22;63149;48.086;-1.606;2022-12-05T06:33:16;5.00;99.90
39277;DHT22;63149;48.086;-1.606;2022-12-05T06:35:44;5.00;99.90
39277;DHT22;63149;48.086;-1.606;2022-12-05T06:38:11;5.10;99.90
39277;DHT22;63149;48.086;-1.606;2022-12-05T06:40:39;5.10;99.90
39277;DHT22;63149;48.086;-1.606;2022-12-05T06:43:06;5.00;99.90
39277;DHT22;63149;48.086;-1.606;2022-12-05T06:45:32;5.00;99.90
39277;DHT22;63149;48.086;-1.606;2022-12-05T06:47:59;5.00;99.90
39277;DHT22;63149;48.086;-1.606;2022-12-05T06:50:26;5.00;99.90
39277;DHT22;63149;48.086;-1.606;2022-12-05T06:52:54;5.10;99.90
39277;DHT22;63149;48.086;-1.606;2022-12-05T06:55:21;5.00;99.90
39277;DHT22;63149;48.086;-1.606;2022-12-05T06:57:47;5.10;99.90
39277;DHT22;63149;48.086;-1.606;2022-12-05T07:00:14;5.10;99.90
39277;DHT22;63149;48.086;-1.606;2022-12-05T07:02:58;5.10;99.90
39277;DHT22;63149;48.086;-1.606;2022-12-05T07:05:25;5.10;99.90
39277;DHT22;63149;48.086;-1.606;2022-12-05T07:07:53;5.10;99.90
39277;DHT22;63149;48.086;-1.606;2022-12-05T07:10:20;5.10;99.90
39277;DHT22;63149;48.086;-1.606;2022-12-05T07:12:47;5.10;99.90
39277;DHT22;63149;48.086;-1.606;2022-12-05T07:15:13;5.10;99.90
39277;DHT22;63149;48.086;-1.606;2022-12-05T07:17:40;5.10;99.90
39277;DHT22;63149;48.086;-1.606;2022-12-05T07:20:07;5.10;99.90
39277;DHT22;63149;48.086;-1.606;2022-12-05T07:22:35;5.10;99.90
39277;DHT22;63149;48.086;-1.606;2022-12-05T07:25:04;5.10;99.90
39277;DHT22;63149;48.086;-1.606;2022-12-05T07:27:30;5.10;99.90
39277;DHT22;63149;48.086;-1.606;2022-12-05T07:29:58;5.10;99.90
39277;DHT22;63149;48.086;-1.606;2022-12-05T07:32:25;5.10;99.90
39277;DHT22;63149;48.086;-1.606;2022-12-05T07:34:51;5.10;99.90
39277;DHT22;63149;48.086;-1.606;2022-12-05T07:37:18;5.10;99.90
39277;DHT22;63149;48.086;-1.606;2022-12-05T07:39:45;5.10;99.90
39277;DHT22;63149;48.086;-1.606;2022-12-05T07:42:13;5.10;99.90
39277;DHT22;63149;48.086;-1.606;2022-12-05T07:44:39;5.10;99.90
39277;DHT22;63149;48.086;-1.606;2022-12-05T07:47:06;5.10;99.90
39277;DHT22;63149;48.086;-1.606;2022-12-05T07:49:33;5.10;99.90
39277;DHT22;63149;48.086;-1.606;2022-12-05T07:52:01;5.10;99.90
39277;DHT22;63149;48.086;-1.606;2022-12-05T07:54:27;5.10;99.90
39277;DHT22;63149;48.086;-1.606;2022-12-05T07:56:54;5.10;99.90
39277;DHT22;63149;48.086;-1.606;2022-12-05T07:59:22;5.10;99.90
39277;DHT22;63149;48.086;-1.606;2022-12-05T08:01:49;5.10;99.90
39277;DHT22;63149;48.086;-1.606;2022-12-05T08:04:16;5.10;99.90
39277;DHT22;63149;48.086;-1.606;2022-12-05T08:06:43;5.10;99.90
39277;DHT22;63149;48.086;-1.606;2022-12-05T08:09:09;5.10;99.90
39277;DHT22;63149;48.086;-1.606;2022-12-05T08:11:36;5.10;99.90
39277;DHT22;63149;48.086;-1.606;2022-12-05T08:14:03;5.10;99.90
39277;DHT22;63149;48.086;-1.606;2022-12-05T08:16:32;5.10;99.90
39277;DHT22;63149;48.086;-1.606;2022-12-05T08:18:59;5.20;99.90
39277;DHT22;63149;48.086;-1.606;2022-12-05T08:21:27;5.10;99.90
39277;DHT22;63149;48.086;-1.606;2022-12-05T08:23:54;5.10;99.90
39277;DHT22;63149;48.086;-1.606;2022-12-05T08:26:21;5.10;99.90
39277;DHT22;63149;48.086;-1.606;2022-12-05T08:28:49;5.10;99.90
39277;DHT22;63149;48.086;-1.606;2022-12-05T08:31:18;5.10;99.90
39277;DHT22;63149;48.086;-1.606;2022-12-05T08:33:46;5.10;99.90
39277;DHT22;63149;48.086;-1.606;2022-12-05T08:36:13;5.20;99.90
39277;DHT22;63149;48.086;-1.606;2022-12-05T08:38:40;5.20;99.90
39277;DHT22;63149;48.086;-1.606;2022-12-05T08:41:08;5.20;99.90
39277;DHT22;63149;48.086;-1.606;2022-12-05T08:43:35;5.20;99.90
39277;DHT22;63149;48.086;-1.606;2022-12-05T08:46:02;5.20;99.90
39277;DHT22;63149;48.086;-1.606;2022-12-05T08:48:29;5.20;99.90
39277;DHT22;63149;48.086;-1.606;2022-12-05T08:50:58;5.20;99.90
39277;DHT22;63149;48.086;-1.606;2022-12-05T08:53:25;5.20;99.90
39277;DHT22;63149;48.086;-1.606;2022-12-05T08:55:52;5.20;99.90
39277;DHT22;63149;48.086;-1.606;2022-12-05T08:58:18;5.20;99.90
39277;DHT22;63149;48.086;-1.606;2022-12-05T09:00:45;5.30;99.90
39277;DHT22;63149;48.086;-1.606;2022-12-05T09:03:12;5.30;99.90
39277;DHT22;63149;48.086;-1.606;2022-12-05T09:05:38;5.30;99.90
39277;DHT22;63149;48.086;-1.606;2022-12-05T09:08:06;5.30;99.90
39277;DHT22;63149;48.086;-1.606;2022-12-05T09:10:33;5.30;99.90
39277;DHT22;63149;48.086;-1.606;2022-12-05T09:13:00;5.30;99.90
39277;DHT22;63149;48.086;-1.606;2022-12-05T09:15:27;5.30;99.90
39277;DHT22;63149;48.086;-1.606;2022-12-05T09:17:53;5.30;99.90
39277;DHT22;63149;48.086;-1.606;2022-12-05T09:20:20;5.30;99.90
39277;DHT22;63149;48.086;-1.606;2022-12-05T09:22:47;5.30;99.90
39277;DHT22;63149;48.086;-1.606;2022-12-05T09:25:15;5.30;99.90
39277;DHT22;63149;48.086;-1.606;2022-12-05T09:27:41;5.30;99.90
39277;DHT22;63149;48.086;-1.606;2022-12-05T09:30:08;5.30;99.90
39277;DHT22;63149;48.086;-1.606;2022-12-05T09:32:35;5.30;99.90
39277;DHT22;63149;48.086;-1.606;2022-12-05T09:35:02;5.30;99.90
39277;DHT22;63149;48.086;-1.606;2022-12-05T09:37:29;5.30;99.90
39277;DHT22;63149;48.086;-1.606;2022-12-05T09:39:56;5.30;99.90
39277;DHT22;63149;48.086;-1.606;2022-12-05T09:42:38;5.30;99.90
39277;DHT22;63149;48.086;-1.606;2022-12-05T09:45:14;5.30;99.90
39277;DHT22;63149;48.086;-1.606;2022-12-05T09:47:48;5.30;99.90
39277;DHT22;63149;48.086;-1.606;2022-12-05T09:50:18;5.30;99.90
39277;DHT22;63149;48.086;-1.606;2022-12-05T09:52:49;5.40;99.90
39277;DHT22;63149;48.086;-1.606;2022-12-05T09:55:19;5.40;99.90
39277;DHT22;63149;48.086;-1.606;2022-12-05T09:57:49;5.40;99.90
39277;DHT22;63149;48.086;-1.606;2022-12-05T10:00:16;5.30;99.90
39277;DHT22;63149;48.086;-1.606;2022-12-05T10:02:45;5.40;99.90
39277;DHT22;63149;48.086;-1.606;2022-12-05T10:05:16;5.40;99.90
39277;DHT22;63149;48.086;-1.606;2022-12-05T10:07:47;5.40;99.90
39277;DHT22;63149;48.086;-1.606;2022-12-05T10:10:24;5.40;99.90
39277;DHT22;63149;48.086;-1.606;2022-12-05T10:15:43;5.40;99.90
39277;DHT22;63149;48.086;-1.606;2022-12-05T10:18:14;5.40;99.90
39277;DHT22;63149;48.086;-1.606;2022-12-05T10:20:43;5.40;99.90
39277;DHT22;63149;48.086;-1.606;2022-12-05T10:23:13;5.50;99.90
39277;DHT22;63149;48.086;-1.606;2022-12-05T10:25:42;5.40;99.90
39277;DHT22;63149;48.086;-1.606;2022-12-05T10:28:10;5.40;99.90
39277;DHT22;63149;48.086;-1.606;2022-12-05T10:30:39;5.40;99.90
39277;DHT22;63149;48.086;-1.606;2022-12-05T10:33:12;5.40;99.90
39277;DHT22;63149;48.086;-1.606;2022-12-05T10:35:40;5.40;99.90
39277;DHT22;63149;48.086;-1.606;2022-12-05T10:38:09;5.40;99.90
39277;DHT22;63149;48.086;-1.606;2022-12-05T10:40:37;5.40;99.90
39277;DHT22;63149;48.086;-1.606;2022-12-05T10:43:05;5.50;99.90
39277;DHT22;63149;48.086;-1.606;2022-12-05T10:45:32;5.50;99.90
39277;DHT22;63149;48.086;-1.606;2022-12-05T10:48:01;5.50;99.90
39277;DHT22;63149;48.086;-1.606;2022-12-05T10:50:29;5.50;99.90
39277;DHT22;63149;48.086;-1.606;2022-12-05T10:52:58;5.50;99.90
39277;DHT22;63149;48.086;-1.606;2022-12-05T10:55:27;5.50;99.90
39277;DHT22;63149;48.086;-1.606;2022-12-05T10:58:08;5.60;99.90
39277;DHT22;63149;48.086;-1.606;2022-12-05T11:00:35;5.50;99.90
39277;DHT22;63149;48.086;-1.606;2022-12-05T11:03:02;5.60;99.90
39277;DHT22;63149;48.086;-1.606;2022-12-05T11:05:31;5.60;99.90
39277;DHT22;63149;48.086;-1.606;2022-12-05T11:07:59;5.60;99.90
39277;DHT22;63149;48.086;-1.606;2022-12-05T11:10:26;5.60;99.90
39277;DHT22;63149;48.086;-1.606;2022-12-05T11:12:55;5.60;99.90
39277;DHT22;63149;48.086;-1.606;2022-12-05T11:15:24;5.60;99.90
39277;DHT22;63149;48.086;-1.606;2022-12-05T11:17:51;5.60;99.90
39277;DHT22;63149;48.086;-1.606;2022-12-05T11:20:38;5.60;99.90
39277;DHT22;63149;48.086;-1.606;2022-12-05T11:23:16;5.60;99.90
39277;DHT22;63149;48.086;-1.606;2022-12-05T11:25:43;5.60;99.90
39277;DHT22;63149;48.086;-1.606;2022-12-05T11:28:21;5.60;99.90
39277;DHT22;63149;48.086;-1.606;2022-12-05T11:30:54;5.60;99.90
39277;DHT22;63149;48.086;-1.606;2022-12-05T11:33:22;5.60;99.90
39277;DHT22;63149;48.086;-1.606;2022-12-05T11:35:51;5.60;99.90
39277;DHT22;63149;48.086;-1.606;2022-12-05T11:38:18;5.60;99.90
39277;DHT22;63149;48.086;-1.606;2022-12-05T11:40:48;5.60;99.90
39277;DHT22;63149;48.086;-1.606;2022-12-05T11:46:09;5.60;99.90
39277;DHT22;63149;48.086;-1.606;2022-12-05T11:48:51;5.70;99.90
39277;DHT22;63149;48.086;-1.606;2022-12-05T11:51:30;5.70;99.90
39277;DHT22;63149;48.086;-1.606;2022-12-05T11:54:04;5.70;99.90
39277;DHT22;63149;48.086;-1.606;2022-12-05T11:56:36;5.70;99.90
39277;DHT22;63149;48.086;-1.606;2022-12-05T11:59:10;5.60;99.90
39277;DHT22;63149;48.086;-1.606;2022-12-05T12:01:42;5.70;99.90
39277;DHT22;63149;48.086;-1.606;2022-12-05T12:04:18;5.60;99.90
39277;DHT22;63149;48.086;-1.606;2022-12-05T12:06:52;5.70;99.90
39277;DHT22;63149;48.086;-1.606;2022-12-05T12:09:27;5.70;99.90
39277;DHT22;63149;48.086;-1.606;2022-12-05T12:11:57;5.70;99.90
39277;DHT22;63149;48.086;-1.606;2022-12-05T12:14:29;5.70;99.90
39277;DHT22;63149;48.086;-1.606;2022-12-05T12:17:00;5.70;99.90
39277;DHT22;63149;48.086;-1.606;2022-12-05T12:19:41;5.80;99.90
39277;DHT22;63149;48.086;-1.606;2022-12-05T12:22:21;5.70;99.90
39277;DHT22;63149;48.086;-1.606;2022-12-05T12:24:53;5.80;99.90
39277;DHT22;63149;48.086;-1.606;2022-12-05T12:27:25;5.80;99.90
39277;DHT22;63149;48.086;-1.606;2022-12-05T12:29:56;5.80;99.90
39277;DHT22;63149;48.086;-1.606;2022-12-05T12:32:28;5.80;99.90
39277;DHT22;63149;48.086;-1.606;2022-12-05T12:37:46;5.80;99.90
39277;DHT22;63149;48.086;-1.606;2022-12-05T12:40:16;5.80;99.90
39277;DHT22;63149;48.086;-1.606;2022-12-05T12:42:47;5.80;99.90
39277;DHT22;63149;48.086;-1.606;2022-12-05T12:45:26;5.80;99.90
39277;DHT22;63149;48.086;-1.606;2022-12-05T12:48:00;5.70;99.90
39277;DHT22;63149;48.086;-1.606;2022-12-05T12:50:29;5.80;99.90
39277;DHT22;63149;48.086;-1.606;2022-12-05T12:53:02;5.80;99.90
39277;DHT22;63149;48.086;-1.606;2022-12-05T12:55:35;5.70;99.90
39277;DHT22;63149;48.086;-1.606;2022-12-05T12:58:06;5.70;99.90
39277;DHT22;63149;48.086;-1.606;2022-12-05T13:00:37;5.70;99.90
39277;DHT22;63149;48.086;-1.606;2022-12-05T13:03:08;5.70;99.90
39277;DHT22;63149;48.086;-1.606;2022-12-05T13:05:38;5.70;99.90
39277;DHT22;63149;48.086;-1.606;2022-12-05T13:08:10;5.80;99.90
39277;DHT22;63149;48.086;-1.606;2022-12-05T13:10:40;5.80;99.90
39277;DHT22;63149;48.086;-1.606;2022-12-05T13:13:09;5.80;99.90
39277;DHT22;63149;48.086;-1.606;2022-12-05T13:15:39;5.80;99.90
39277;DHT22;63149;48.086;-1.606;2022-12-05T13:18:11;5.80;99.90
39277;DHT22;63149;48.086;-1.606;2022-12-05T13:20:39;5.80;99.90
39277;DHT22;63149;48.086;-1.606;2022-12-05T13:23:06;5.70;99.90
39277;DHT22;63149;48.086;-1.606;2022-12-05T13:25:38;5.80;99.90
39277;DHT22;63149;48.086;-1.606;2022-12-05T13:28:06;5.80;99.90
39277;DHT22;63149;48.086;-1.606;2022-12-05T13:30:46;5.80;99.90
39277;DHT22;63149;48.086;-1.606;2022-12-05T13:33:24;5.80;99.90
39277;DHT22;63149;48.086;-1.606;2022-12-05T13:35:53;5.80;99.90
39277;DHT22;63149;48.086;-1.606;2022-12-05T13:38:38;5.80;99.90
39277;DHT22;63149;48.086;-1.606;2022-12-05T13:41:24;5.80;99.90
39277;DHT22;63149;48.086;-1.606;2022-12-05T13:44:25;5.80;99.90
39277;DHT22;63149;48.086;-1.606;2022-12-05T13:46:54;5.80;99.90
39277;DHT22;63149;48.086;-1.606;2022-12-05T13:49:22;5.90;99.90
39277;DHT22;63149;48.086;-1.606;2022-12-05T13:51:53;5.90;99.90
39277;DHT22;63149;48.086;-1.606;2022-12-05T13:54:20;5.90;99.90
39277;DHT22;63149;48.086;-1.606;2022-12-05T13:56:50;6.00;99.90
39277;DHT22;63149;48.086;-1.606;2022-12-05T14:02:09;6.00;99.90
39277;DHT22;63149;48.086;-1.606;2022-12-05T14:04:52;5.90;99.90
39277;DHT22;63149;48.086;-1.606;2022-12-05T14:07:38;5.90;99.90
39277;DHT22;63149;48.086;-1.606;2022-12-05T14:10:06;5.90;99.90
39277;DHT22;63149;48.086;-1.606;2022-12-05T14:12:48;5.90;99.90
39277;DHT22;63149;48.086;-1.606;2022-12-05T14:15:25;5.80;99.90
39277;DHT22;63149;48.086;-1.606;2022-12-05T14:17:55;5.90;99.90
39277;DHT22;63149;48.086;-1.606;2022-12-05T14:20:24;5.90;99.90
39277;DHT22;63149;48.086;-1.606;2022-12-05T14:23:05;5.90;99.90
39277;DHT22;63149;48.086;-1.606;2022-12-05T14:25:46;5.90;99.90
39277;DHT22;63149;48.086;-1.606;2022-12-05T14:28:19;5.90;99.90
39277;DHT22;63149;48.086;-1.606;2022-12-05T14:30:50;5.90;99.90
39277;DHT22;63149;48.086;-1.606;2022-12-05T14:33:19;5.90;99.90
39277;DHT22;63149;48.086;-1.606;2022-12-05T14:35:47;5.90;99.90
39277;DHT22;63149;48.086;-1.606;2022-12-05T14:38:19;5.90;99.90
39277;DHT22;63149;48.086;-1.606;2022-12-05T14:40:47;6.00;99.90
39277;DHT22;63149;48.086;-1.606;2022-12-05T14:43:16;6.00;99.90
39277;DHT22;63149;48.086;-1.606;2022-12-05T14:45:52;5.90;99.90
39277;DHT22;63149;48.086;-1.606;2022-12-05T14:48:24;5.90;99.90
39277;DHT22;63149;48.086;-1.606;2022-12-05T14:50:52;5.90;99.90
39277;DHT22;63149;48.086;-1.606;2022-12-05T14:53:32;6.00;99.90
39277;DHT22;63149;48.086;-1.606;2022-12-05T14:58:48;6.00;99.90
39277;DHT22;63149;48.086;-1.606;2022-12-05T15:01:18;6.00;99.90
39277;DHT22;63149;48.086;-1.606;2022-12-05T15:06:31;6.10;99.90
39277;DHT22;63149;48.086;-1.606;2022-12-05T15:08:58;6.10;99.90
39277;DHT22;63149;48.086;-1.606;2022-12-05T15:11:26;6.00;99.90
39277;DHT22;63149;48.086;-1.606;2022-12-05T15:13:57;6.10;99.90
39277;DHT22;63149;48.086;-1.606;2022-12-05T15:16:26;6.10;99.90
39277;DHT22;63149;48.086;-1.606;2022-12-05T15:18:55;6.10;99.90
39277;DHT22;63149;48.086;-1.606;2022-12-05T15:21:24;6.10;99.90
39277;DHT22;63149;48.086;-1.606;2022-12-05T15:23:54;6.10;99.90
39277;DHT22;63149;48.086;-1.606;2022-12-05T15:26:22;6.10;99.90
39277;DHT22;63149;48.086;-1.606;2022-12-05T15:28:59;6.10;99.90
39277;DHT22;63149;48.086;-1.606;2022-12-05T15:31:28;6.10;99.90
39277;DHT22;63149;48.086;-1.606;2022-12-05T15:33:56;6.10;99.90
39277;DHT22;63149;48.086;-1.606;2022-12-05T15:36:24;6.10;99.90
39277;DHT22;63149;48.086;-1.606;2022-12-05T15:38:53;6.00;99.90
39277;DHT22;63149;48.086;-1.606;2022-12-05T15:41:20;6.00;99.90
39277;DHT22;63149;48.086;-1.606;2022-12-05T15:43:53;6.00;99.90
39277;DHT22;63149;48.086;-1.606;2022-12-05T15:46:20;6.00;99.90
39277;DHT22;63149;48.086;-1.606;2022-12-05T15:48:49;6.00;99.90
39277;DHT22;63149;48.086;-1.606;2022-12-05T15:51:17;6.00;99.90
39277;DHT22;63149;48.086;-1.606;2022-12-05T15:53:44;6.00;99.90
39277;DHT22;63149;48.086;-1.606;2022-12-05T15:56:13;6.00;99.90
39277;DHT22;63149;48.086;-1.606;2022-12-05T15:58:41;6.00;99.90
39277;DHT22;63149;48.086;-1.606;2022-12-05T16:01:09;6.00;99.90
39277;DHT22;63149;48.086;-1.606;2022-12-05T16:03:38;5.90;99.90
39277;DHT22;63149;48.086;-1.606;2022-12-05T16:06:08;5.90;99.90
39277;DHT22;63149;48.086;-1.606;2022-12-05T16:08:42;5.90;99.90
39277;DHT22;63149;48.086;-1.606;2022-12-05T16:11:09;5.90;99.90
39277;DHT22;63149;48.086;-1.606;2022-12-05T16:13:36;5.90;99.90
39277;DHT22;63149;48.086;-1.606;2022-12-05T16:16:07;5.90;99.90
39277;DHT22;63149;48.086;-1.606;2022-12-05T16:18:35;5.90;99.90
39277;DHT22;63149;48.086;-1.606;2022-12-05T16:21:03;5.90;99.90
39277;DHT22;63149;48.086;-1.606;2022-12-05T16:23:58;6.00;99.90
39277;DHT22;63149;48.086;-1.606;2022-12-05T16:26:25;5.90;99.90
39277;DHT22;63149;48.086;-1.606;2022-12-05T16:29:01;5.90;99.90
39277;DHT22;63149;48.086;-1.606;2022-12-05T16:31:28;5.90;99.90
39277;DHT22;63149;48.086;-1.606;2022-12-05T16:34:02;6.00;99.90
39277;DHT22;63149;48.086;-1.606;2022-12-05T16:36:29;5.90;99.90
39277;DHT22;63149;48.086;-1.606;2022-12-05T16:39:02;6.00;99.90
39277;DHT22;63149;48.086;-1.606;2022-12-05T16:41:33;6.00;99.90
39277;DHT22;63149;48.086;-1.606;2022-12-05T16:44:00;6.00;99.90
39277;DHT22;63149;48.086;-1.606;2022-12-05T16:46:42;6.00;99.90
39277;DHT22;63149;48.086;-1.606;2022-12-05T16:49:16;6.00;99.90
39277;DHT22;63149;48.086;-1.606;2022-12-05T16:51:44;6.00;99.90
39277;DHT22;63149;48.086;-1.606;2022-12-05T16:54:14;6.00;99.90
39277;DHT22;63149;48.086;-1.606;2022-12-05T16:56:41;5.90;99.90
39277;DHT22;63149;48.086;-1.606;2022-12-05T16:59:08;6.00;99.90
39277;DHT22;63149;48.086;-1.606;2022-12-05T17:01:39;6.00;99.90
39277;DHT22;63149;48.086;-1.606;2022-12-05T17:04:07;6.00;99.90
39277;DHT22;63149;48.086;-1.606;2022-12-05T17:06:36;5.90;99.90
39277;DHT22;63149;48.086;-1.606;2022-12-05T17:09:03;5.90;99.90
39277;DHT22;63149;48.086;-1.606;2022-12-05T17:11:32;5.90;99.90
39277;DHT22;63149;48.086;-1.606;2022-12-05T17:13:59;5.90;99.90
39277;DHT22;63149;48.086;-1.606;2022-12-05T17:16:26;5.90;99.90
39277;DHT22;63149;48.086;-1.606;2022-12-05T17:18:53;5.90;99.90
39277;DHT22;63149;48.086;-1.606;2022-12-05T17:21:20;5.80;99.90
39277;DHT22;63149;48.086;-1.606;2022-12-05T17:23:48;5.80;99.90
39277;DHT22;63149;48.086;-1.606;2022-12-05T17:26:15;5.80;99.90
39277;DHT22;63149;48.086;-1.606;2022-12-05T17:28:44;5.80;99.90
39277;DHT22;63149;48.086;-1.606;2022-12-05T17:31:11;5.70;99.90
39277;DHT22;63149;48.086;-1.606;2022-12-05T17:33:38;5.70;99.90
39277;DHT22;63149;48.086;-1.606;2022-12-05T17:36:05;5.70;99.90
39277;DHT22;63149;48.086;-1.606;2022-12-05T17:38:32;5.70;99.90
39277;DHT22;63149;48.086;-1.606;2022-12-05T17:40:59;5.70;99.90
39277;DHT22;63149;48.086;-1.606;2022-12-05T17:43:26;5.60;99.90
39277;DHT22;63149;48.086;-1.606;2022-12-05T17:45:54;5.60;99.90
39277;DHT22;63149;48.086;-1.606;2022-12-05T17:48:20;5.70;99.90
39277;DHT22;63149;48.086;-1.606;2022-12-05T17:50:47;5.60;99.90
39277;DHT22;63149;48.086;-1.606;2022-12-05T17:53:15;5.60;99.90
39277;DHT22;63149;48.086;-1.606;2022-12-05T17:55:42;5.60;99.90
39277;DHT22;63149;48.086;-1.606;2022-12-05T17:58:09;5.60;99.90
39277;DHT22;63149;48.086;-1.606;2022-12-05T18:00:38;5.60;99.90
39277;DHT22;63149;48.086;-1.606;2022-12-05T18:03:08;5.60;99.90
39277;DHT22;63149;48.086;-1.606;2022-12-05T18:05:36;5.60;99.90
39277;DHT22;63149;48.086;-1.606;2022-12-05T18:08:02;5.60;99.90
39277;DHT22;63149;48.086;-1.606;2022-12-05T18:10:29;5.60;99.90
39277;DHT22;63149;48.086;-1.606;2022-12-05T18:12:56;5.60;99.90
39277;DHT22;63149;48.086;-1.606;2022-12-05T18:15:23;5.60;99.90
39277;DHT22;63149;48.086;-1.606;2022-12-05T18:17:49;5.60;99.90
39277;DHT22;63149;48.086;-1.606;2022-12-05T18:20:18;5.60;99.90
39277;DHT22;63149;48.086;-1.606;2022-12-05T18:22:44;5.60;99.90
39277;DHT22;63149;48.086;-1.606;2022-12-05T18:25:11;5.50;99.90
39277;DHT22;63149;48.086;-1.606;2022-12-05T18:27:38;5.50;99.90
39277;DHT22;63149;48.086;-1.606;2022-12-05T18:30:05;5.50;99.90
39277;DHT22;63149;48.086;-1.606;2022-12-05T18:32:32;5.50;99.90
39277;DHT22;63149;48.086;-1.606;2022-12-05T18:34:59;5.50;99.90
39277;DHT22;63149;48.086;-1.606;2022-12-05T18:37:29;5.50;99.90
39277;DHT22;63149;48.086;-1.606;2022-12-05T18:39:56;5.60;99.90
39277;DHT22;63149;48.086;-1.606;2022-12-05T18:42:22;5.60;99.90
39277;DHT22;63149;48.086;-1.606;2022-12-05T18:44:49;5.60;99.90
39277;DHT22;63149;48.086;-1.606;2022-12-05T18:47:17;5.60;99.90
39277;DHT22;63149;48.086;-1.606;2022-12-05T18:49:44;5.60;99.90
39277;DHT22;63149;48.086;-1.606;2022-12-05T18:52:11;5.60;99.90
39277;DHT22;63149;48.086;-1.606;2022-12-05T18:54:39;5.60;99.90
39277;DHT22;63149;48.086;-1.606;2022-12-05T18:57:06;5.60;99.90
39277;DHT22;63149;48.086;-1.606;2022-12-05T18:59:33;5.60;99.90
39277;DHT22;63149;48.086;-1.606;2022-12-05T19:01:59;5.60;99.90
39277;DHT22;63149;48.086;-1.606;2022-12-05T19:04:26;5.60;99.90
39277;DHT22;63149;48.086;-1.606;2022-12-05T19:06:54;5.60;99.90
39277;DHT22;63149;48.086;-1.606;2022-12-05T19:09:22;5.60;99.90
39277;DHT22;63149;48.086;-1.606;2022-12-05T19:11:51;5.60;99.90
39277;DHT22;63149;48.086;-1.606;2022-12-05T19:14:19;5.60;99.90
39277;DHT22;63149;48.086;-1.606;2022-12-05T19:16:47;5.60;99.90
39277;DHT22;63149;48.086;-1.606;2022-12-05T19:19:14;5.50;99.90
39277;DHT22;63149;48.086;-1.606;2022-12-05T19:21:42;5.60;99.90
39277;DHT22;63149;48.086;-1.606;2022-12-05T19:24:09;5.60;99.90
39277;DHT22;63149;48.086;-1.606;2022-12-05T19:26:37;5.60;99.90
39277;DHT22;63149;48.086;-1.606;2022-12-05T19:29:05;5.60;99.90
39277;DHT22;63149;48.086;-1.606;2022-12-05T19:31:32;5.60;99.90
39277;DHT22;63149;48.086;-1.606;2022-12-05T19:34:00;5.60;99.90
39277;DHT22;63149;48.086;-1.606;2022-12-05T19:36:28;5.60;99.90
39277;DHT22;63149;48.086;-1.606;2022-12-05T19:38:54;5.60;99.90
39277;DHT22;63149;48.086;-1.606;2022-12-05T19:41:22;5.60;99.90
39277;DHT22;63149;48.086;-1.606;2022-12-05T19:43:49;5.60;99.90
39277;DHT22;63149;48.086;-1.606;2022-12-05T19:46:17;5.60;99.90
39277;DHT22;63149;48.086;-1.606;2022-12-05T19:48:44;5.60;99.90
39277;DHT22;63149;48.086;-1.606;2022-12-05T19:51:11;5.60;99.90
39277;DHT22;63149;48.086;-1.606;2022-12-05T19:53:38;5.60;99.90
39277;DHT22;63149;48.086;-1.606;2022-12-05T19:56:07;5.60;99.90
39277;DHT22;63149;48.086;-1.606;2022-12-05T19:58:36;5.60;99.90
39277;DHT22;63149;48.086;-1.606;2022-12-05T20:01:07;5.60;99.90
39277;DHT22;63149;48.086;-1.606;2022-12-05T20:03:36;5.60;99.90
39277;DHT22;63149;48.086;-1.606;2022-12-05T20:06:03;5.60;99.90
39277;DHT22;63149;48.086;-1.606;2022-12-05T20:08:30;5.60;99.90
39277;DHT22;63149;48.086;-1.606;2022-12-05T20:11:01;5.60;99.90
39277;DHT22;63149;48.086;-1.606;2022-12-05T20:13:28;5.60;99.90
39277;DHT22;63149;48.086;-1.606;2022-12-05T20:15:54;5.50;99.90
39277;DHT22;63149;48.086;-1.606;2022-12-05T20:18:25;5.60;99.90
39277;DHT22;63149;48.086;-1.606;2022-12-05T20:20:56;5.60;99.90
39277;DHT22;63149;48.086;-1.606;2022-12-05T20:23:23;5.60;99.90
39277;DHT22;63149;48.086;-1.606;2022-12-05T20:25:50;5.60;99.90
39277;DHT22;63149;48.086;-1.606;2022-12-05T20:28:16;5.60;99.90
39277;DHT22;63149;48.086;-1.606;2022-12-05T20:30:43;5.60;99.90
39277;DHT22;63149;48.086;-1.606;2022-12-05T20:33:10;5.60;99.90
39277;DHT22;63149;48.086;-1.606;2022-12-05T20:35:37;5.60;99.90
39277;DHT22;63149;48.086;-1.606;2022-12-05T20:38:05;5.60;99.90
39277;DHT22;63149;48.086;-1.606;2022-12-05T20:40:31;5.60;99.90
39277;DHT22;63149;48.086;-1.606;2022-12-05T20:42:58;5.60;99.90
39277;DHT22;63149;48.086;-1.606;2022-12-05T20:45:25;5.60;99.90
39277;DHT22;63149;48.086;-1.606;2022-12-05T20:47:51;5.60;99.90
39277;DHT22;63149;48.086;-1.606;2022-12-05T20:50:18;5.60;99.90
39277;DHT22;63149;48.086;-1.606;2022-12-05T20:52:45;5.60;99.90
39277;DHT22;63149;48.086;-1.606;2022-12-05T20:55:13;5.60;99.90
39277;DHT22;63149;48.086;-1.606;2022-12-05T20:57:40;5.60;99.90
39277;DHT22;63149;48.086;-1.606;2022-12-05T21:00:07;5.60;99.90
39277;DHT22;63149;48.086;-1.606;2022-12-05T21:02:34;5.60;99.90
39277;DHT22;63149;48.086;-1.606;2022-12-05T21:05:01;5.50;99.90
39277;DHT22;63149;48.086;-1.606;2022-12-05T21:07:28;5.50;99.90
39277;DHT22;63149;48.086;-1.606;2022-12-05T21:09:54;5.50;99.90
39277;DHT22;63149;48.086;-1.606;2022-12-05T21:12:22;5.50;99.90
39277;DHT22;63149;48.086;-1.606;2022-12-05T21:14:49;5.50;99.90
39277;DHT22;63149;48.086;-1.606;2022-12-05T21:17:16;5.50;99.90
39277;DHT22;63149;48.086;-1.606;2022-12-05T21:19:43;5.50;99.90
39277;DHT22;63149;48.086;-1.606;2022-12-05T21:22:10;5.50;99.90
39277;DHT22;63149;48.086;-1.606;2022-12-05T21:24:37;5.50;99.90
39277;DHT22;63149;48.086;-1.606;2022-12-05T21:27:04;5.50;99.90
39277;DHT22;63149;48.086;-1.606;2022-12-05T21:29:32;5.50;99.90
39277;DHT22;63149;48.086;-1.606;2022-12-05T21:31:59;5.50;99.90
39277;DHT22;63149;48.086;-1.606;2022-12-05T21:34:25;5.50;99.90
39277;DHT22;63149;48.086;-1.606;2022-12-05T21:36:52;5.50;99.90
39277;DHT22;63149;48.086;-1.606;2022-12-05T21:39:19;5.50;99.90
39277;DHT22;63149;48.086;-1.606;2022-12-05T21:41:46;5.50;99.90
39277;DHT22;63149;48.086;-1.606;2022-12-05T21:44:12;5.50;99.90
39277;DHT22;63149;48.086;-1.606;2022-12-05T21:46:41;5.50;99.90
39277;DHT22;63149;48.086;-1.606;2022-12-05T21:49:08;5.50;99.90
39277;DHT22;63149;48.086;-1.606;2022-12-05T21:51:35;5.50;99.90
39277;DHT22;63149;48.086;-1.606;2022-12-05T21:54:02;5.50;99.90
39277;DHT22;63149;48.086;-1.606;2022-12-05T21:56:29;5.50;99.90
39277;DHT22;63149;48.086;-1.606;2022-12-05T21:58:55;5.50;99.90